sensor_id;sensor_type;location;lat;lon;timestamp;P1;durP1;ratioP1;P2;durP2;ratioP2
61017;SDS011;48171;51.550;5.434;2023-02-28T00:02:12;24.05;;;12.15;;
61017;SDS011;48171;51.550;5.434;2023-02-28T00:04:37;21.42;;;11.45;;
61017;SDS011;48171;51.550;5.434;2023-02-28T00:07:02;21.55;;;10.50;;
61017;SDS011;48171;51.550;5.434;2023-02-28T00:09:28;19.88;;;11.38;;
61017;SDS011;48171;51.550;5.434;2023-02-28T00:11:53;20.25;;;10.55;;
61017;SDS011;48171;51.550;5.434;2023-02-28T00:14:18;16.67;;;10.27;;
61017;SDS011;48171;51.550;5.434;2023-02-28T00:16:43;21.38;;;10.95;;
61017;SDS011;48171;51.550;5.434;2023-02-28T00:19:09;25.23;;;10.80;;
61017;SDS011;48171;51.550;5.434;2023-02-28T00:21:34;18.38;;;9.75;;
61017;SDS011;48171;51.550;5.434;2023-02-28T00:24:00;19.95;;;10.05;;
61017;SDS011;48171;51.550;5.434;2023-02-28T00:26:25;20.58;;;9.77;;
61017;SDS011;48171;51.550;5.434;2023-02-28T00:28:51;18.33;;;9.73;;
61017;SDS011;48171;51.550;5.434;2023-02-28T00:31:17;20.63;;;10.55;;
61017;SDS011;48171;51.550;5.434;2023-02-28T00:33:43;23.30;;;10.13;;
61017;SDS011;48171;51.550;5.434;2023-02-28T00:36:09;23.00;;;10.75;;
61017;SDS011;48171;51.550;5.434;2023-02-28T00:38:36;19.65;;;9.95;;
61017;SDS011;48171;51.550;5.434;2023-02-28T00:41:02;16.35;;;10.10;;
61017;SDS011;48171;51.550;5.434;2023-02-28T00:43:29;20.15;;;9.90;;
61017;SDS011;48171;51.550;5.434;2023-02-28T00:45:55;20.98;;;10.00;;
61017;SDS011;48171;51.550;5.434;2023-02-28T00:48:21;21.23;;;10.55;;
61017;SDS011;48171;51.550;5.434;2023-02-28T00:50:48;18.95;;;10.18;;
61017;SDS011;48171;51.550;5.434;2023-02-28T00:53:14;21.50;;;10.35;;
61017;SDS011;48171;51.550;5.434;2023-02-28T00:55:39;18.48;;;10.07;;
61017;SDS011;48171;51.550;5.434;2023-02-28T00:58:04;21.45;;;10.05;;
61017;SDS011;48171;51.550;5.434;2023-02-28T01:00:30;21.50;;;9.82;;
61017;SDS011;48171;51.550;5.434;2023-02-28T01:02:55;18.92;;;9.63;;
61017;SDS011;48171;51.550;5.434;2023-02-28T01:05:21;19.60;;;9.55;;
61017;SDS011;48171;51.550;5.434;2023-02-28T01:07:46;18.27;;;9.77;;
61017;SDS011;48171;51.550;5.434;2023-02-28T01:10:11;20.45;;;10.25;;
61017;SDS011;48171;51.550;5.434;2023-02-28T01:12:37;20.63;;;9.95;;
61017;SDS011;48171;51.550;5.434;2023-02-28T01:15:02;17.80;;;9.70;;
61017;SDS011;48171;51.550;5.434;2023-02-28T01:17:28;16.70;;;8.70;;
61017;SDS011;48171;51.550;5.434;2023-02-28T01:19:54;22.40;;;10.02;;
61017;SDS011;48171;51.550;5.434;2023-02-28T01:22:20;20.02;;;9.77;;
61017;SDS011;48171;51.550;5.434;2023-02-28T01:24:46;21.38;;;9.35;;
61017;SDS011;48171;51.550;5.434;2023-02-28T01:27:11;21.27;;;9.85;;
61017;SDS011;48171;51.550;5.434;2023-02-28T01:29:36;17.80;;;9.85;;
61017;SDS011;48171;51.550;5.434;2023-02-28T01:32:02;17.25;;;9.40;;
61017;SDS011;48171;51.550;5.434;2023-02-28T01:34:27;20.55;;;10.18;;
61017;SDS011;48171;51.550;5.434;2023-02-28T01:36:52;18.85;;;9.23;;
61017;SDS011;48171;51.550;5.434;2023-02-28T01:39:18;20.38;;;9.32;;
61017;SDS011;48171;51.550;5.434;2023-02-28T01:41:43;18.65;;;9.80;;
61017;SDS011;48171;51.550;5.434;2023-02-28T01:47:11;18.80;;;9.80;;
61017;SDS011;48171;51.550;5.434;2023-02-28T01:49:37;17.95;;;9.32;;
61017;SDS011;48171;51.550;5.434;2023-02-28T01:52:02;19.33;;;10.20;;
61017;SDS011;48171;51.550;5.434;2023-02-28T01:54:29;19.63;;;10.02;;
61017;SDS011;48171;51.550;5.434;2023-02-28T01:56:58;21.88;;;9.75;;
61017;SDS011;48171;51.550;5.434;2023-02-28T01:59:45;19.98;;;9.70;;
61017;SDS011;48171;51.550;5.434;2023-02-28T02:02:16;20.15;;;10.27;;
61017;SDS011;48171;51.550;5.434;2023-02-28T02:05:00;22.15;;;10.25;;
61017;SDS011;48171;51.550;5.434;2023-02-28T02:07:33;23.95;;;10.52;;
61017;SDS011;48171;51.550;5.434;2023-02-28T02:10:35;18.35;;;9.00;;
61017;SDS011;48171;51.550;5.434;2023-02-28T02:26:47;24.70;;;10.93;;
61017;SDS011;48171;51.550;5.434;2023-02-28T02:32:54;19.60;;;10.17;;
61017;SDS011;48171;51.550;5.434;2023-02-28T02:35:49;26.10;;;10.60;;
61017;SDS011;48171;51.550;5.434;2023-02-28T02:38:33;20.58;;;10.27;;
61017;SDS011;48171;51.550;5.434;2023-02-28T02:41:23;22.10;;;9.95;;
61017;SDS011;48171;51.550;5.434;2023-02-28T02:44:13;18.08;;;10.38;;
61017;SDS011;48171;51.550;5.434;2023-02-28T02:46:45;21.13;;;10.40;;
61017;SDS011;48171;51.550;5.434;2023-02-28T02:49:26;22.92;;;10.68;;
61017;SDS011;48171;51.550;5.434;2023-02-28T02:51:56;20.30;;;10.02;;
61017;SDS011;48171;51.550;5.434;2023-02-28T02:54:30;21.85;;;9.73;;
61017;SDS011;48171;51.550;5.434;2023-02-28T02:56:59;19.25;;;10.50;;
61017;SDS011;48171;51.550;5.434;2023-02-28T03:01:57;22.20;;;10.30;;
61017;SDS011;48171;51.550;5.434;2023-02-28T03:04:27;17.55;;;10.02;;
61017;SDS011;48171;51.550;5.434;2023-02-28T03:06:57;21.85;;;10.80;;
61017;SDS011;48171;51.550;5.434;2023-02-28T03:09:22;21.48;;;10.65;;
61017;SDS011;48171;51.550;5.434;2023-02-28T03:11:49;19.23;;;10.27;;
61017;SDS011;48171;51.550;5.434;2023-02-28T03:14:39;24.25;;;10.25;;
61017;SDS011;48171;51.550;5.434;2023-02-28T03:17:31;22.70;;;10.80;;
61017;SDS011;48171;51.550;5.434;2023-02-28T03:20:09;20.95;;;10.10;;
61017;SDS011;48171;51.550;5.434;2023-02-28T03:25:30;24.48;;;10.23;;
61017;SDS011;48171;51.550;5.434;2023-02-28T03:33:28;24.38;;;10.77;;
61017;SDS011;48171;51.550;5.434;2023-02-28T03:36:01;20.23;;;9.98;;
61017;SDS011;48171;51.550;5.434;2023-02-28T03:38:41;19.52;;;10.15;;
61017;SDS011;48171;51.550;5.434;2023-02-28T03:41:15;26.52;;;10.07;;
61017;SDS011;48171;51.550;5.434;2023-02-28T03:43:49;16.63;;;8.88;;
61017;SDS011;48171;51.550;5.434;2023-02-28T03:46:18;20.88;;;10.15;;
61017;SDS011;48171;51.550;5.434;2023-02-28T03:48:53;26.60;;;9.73;;
61017;SDS011;48171;51.550;5.434;2023-02-28T03:51:22;18.05;;;8.88;;
61017;SDS011;48171;51.550;5.434;2023-02-28T03:53:57;20.33;;;9.50;;
61017;SDS011;48171;51.550;5.434;2023-02-28T03:56:48;19.08;;;8.98;;
61017;SDS011;48171;51.550;5.434;2023-02-28T03:59:46;20.98;;;9.30;;
61017;SDS011;48171;51.550;5.434;2023-02-28T04:02:14;26.45;;;10.10;;
61017;SDS011;48171;51.550;5.434;2023-02-28T04:04:40;17.65;;;9.40;;
61017;SDS011;48171;51.550;5.434;2023-02-28T04:07:13;17.83;;;8.98;;
61017;SDS011;48171;51.550;5.434;2023-02-28T04:09:38;19.55;;;9.02;;
61017;SDS011;48171;51.550;5.434;2023-02-28T04:12:04;22.95;;;8.82;;
61017;SDS011;48171;51.550;5.434;2023-02-28T04:14:29;19.65;;;9.32;;
61017;SDS011;48171;51.550;5.434;2023-02-28T04:16:54;18.35;;;8.80;;
61017;SDS011;48171;51.550;5.434;2023-02-28T04:19:20;15.20;;;8.43;;
61017;SDS011;48171;51.550;5.434;2023-02-28T04:21:49;18.20;;;8.82;;
61017;SDS011;48171;51.550;5.434;2023-02-28T04:24:20;17.40;;;8.40;;
61017;SDS011;48171;51.550;5.434;2023-02-28T04:26:49;20.77;;;9.07;;
61017;SDS011;48171;51.550;5.434;2023-02-28T04:29:34;20.42;;;9.57;;
61017;SDS011;48171;51.550;5.434;2023-02-28T04:32:00;14.43;;;8.52;;
61017;SDS011;48171;51.550;5.434;2023-02-28T04:34:27;23.83;;;9.00;;
61017;SDS011;48171;51.550;5.434;2023-02-28T04:36:54;17.90;;;8.35;;
61017;SDS011;48171;51.550;5.434;2023-02-28T04:39:21;18.30;;;8.30;;
61017;SDS011;48171;51.550;5.434;2023-02-28T04:41:47;18.23;;;8.65;;
61017;SDS011;48171;51.550;5.434;2023-02-28T04:44:12;22.90;;;9.32;;
61017;SDS011;48171;51.550;5.434;2023-02-28T04:46:38;18.77;;;8.57;;
61017;SDS011;48171;51.550;5.434;2023-02-28T04:49:03;20.92;;;8.60;;
61017;SDS011;48171;51.550;5.434;2023-02-28T04:51:29;18.23;;;8.55;;
61017;SDS011;48171;51.550;5.434;2023-02-28T04:53:54;17.73;;;8.05;;
61017;SDS011;48171;51.550;5.434;2023-02-28T04:56:20;19.95;;;8.27;;
61017;SDS011;48171;51.550;5.434;2023-02-28T04:58:46;17.38;;;8.30;;
61017;SDS011;48171;51.550;5.434;2023-02-28T05:03:40;19.27;;;8.32;;
61017;SDS011;48171;51.550;5.434;2023-02-28T05:06:06;17.08;;;8.10;;
61017;SDS011;48171;51.550;5.434;2023-02-28T05:08:32;21.17;;;8.52;;
61017;SDS011;48171;51.550;5.434;2023-02-28T05:10:57;17.77;;;8.43;;
61017;SDS011;48171;51.550;5.434;2023-02-28T05:13:23;16.45;;;7.90;;
61017;SDS011;48171;51.550;5.434;2023-02-28T05:15:48;15.50;;;7.28;;
61017;SDS011;48171;51.550;5.434;2023-02-28T05:18:14;17.35;;;8.43;;
61017;SDS011;48171;51.550;5.434;2023-02-28T05:20:39;15.20;;;7.18;;
61017;SDS011;48171;51.550;5.434;2023-02-28T05:23:04;18.48;;;8.63;;
61017;SDS011;48171;51.550;5.434;2023-02-28T05:25:30;16.15;;;8.10;;
61017;SDS011;48171;51.550;5.434;2023-02-28T05:27:55;16.55;;;8.18;;
61017;SDS011;48171;51.550;5.434;2023-02-28T05:30:20;14.35;;;7.50;;
61017;SDS011;48171;51.550;5.434;2023-02-28T05:32:49;20.05;;;8.75;;
61017;SDS011;48171;51.550;5.434;2023-02-28T05:35:15;17.73;;;8.63;;
61017;SDS011;48171;51.550;5.434;2023-02-28T05:37:40;17.20;;;8.55;;
61017;SDS011;48171;51.550;5.434;2023-02-28T05:40:06;18.67;;;8.77;;
61017;SDS011;48171;51.550;5.434;2023-02-28T05:42:35;18.17;;;8.93;;
61017;SDS011;48171;51.550;5.434;2023-02-28T05:45:01;19.05;;;9.00;;
61017;SDS011;48171;51.550;5.434;2023-02-28T05:47:26;18.40;;;9.00;;
61017;SDS011;48171;51.550;5.434;2023-02-28T05:49:51;17.55;;;8.73;;
61017;SDS011;48171;51.550;5.434;2023-02-28T05:52:17;20.98;;;9.18;;
61017;SDS011;48171;51.550;5.434;2023-02-28T05:54:42;19.13;;;9.15;;
61017;SDS011;48171;51.550;5.434;2023-02-28T05:57:07;16.48;;;8.85;;
61017;SDS011;48171;51.550;5.434;2023-02-28T05:59:32;17.38;;;9.13;;
61017;SDS011;48171;51.550;5.434;2023-02-28T06:01:58;16.63;;;9.00;;
61017;SDS011;48171;51.550;5.434;2023-02-28T06:04:23;19.40;;;9.35;;
61017;SDS011;48171;51.550;5.434;2023-02-28T06:06:49;21.90;;;9.15;;
61017;SDS011;48171;51.550;5.434;2023-02-28T06:09:15;20.10;;;10.25;;
61017;SDS011;48171;51.550;5.434;2023-02-28T06:11:40;18.25;;;9.70;;
61017;SDS011;48171;51.550;5.434;2023-02-28T06:14:06;17.08;;;9.57;;
61017;SDS011;48171;51.550;5.434;2023-02-28T06:16:32;18.85;;;9.43;;
61017;SDS011;48171;51.550;5.434;2023-02-28T06:19:00;17.50;;;9.43;;
61017;SDS011;48171;51.550;5.434;2023-02-28T06:21:26;18.05;;;9.23;;
61017;SDS011;48171;51.550;5.434;2023-02-28T06:23:53;20.80;;;10.35;;
61017;SDS011;48171;51.550;5.434;2023-02-28T06:26:19;21.52;;;9.50;;
61017;SDS011;48171;51.550;5.434;2023-02-28T06:28:44;17.42;;;8.70;;
61017;SDS011;48171;51.550;5.434;2023-02-28T06:31:11;21.67;;;9.75;;
61017;SDS011;48171;51.550;5.434;2023-02-28T06:33:38;21.40;;;9.45;;
61017;SDS011;48171;51.550;5.434;2023-02-28T06:36:04;17.40;;;9.60;;
61017;SDS011;48171;51.550;5.434;2023-02-28T06:38:30;18.70;;;9.80;;
61017;SDS011;48171;51.550;5.434;2023-02-28T06:40:56;19.42;;;9.50;;
61017;SDS011;48171;51.550;5.434;2023-02-28T06:43:23;19.85;;;9.73;;
61017;SDS011;48171;51.550;5.434;2023-02-28T06:45:49;17.60;;;9.70;;
61017;SDS011;48171;51.550;5.434;2023-02-28T06:48:15;22.27;;;9.77;;
61017;SDS011;48171;51.550;5.434;2023-02-28T06:50:41;19.95;;;10.23;;
61017;SDS011;48171;51.550;5.434;2023-02-28T06:53:07;20.80;;;9.95;;
61017;SDS011;48171;51.550;5.434;2023-02-28T06:55:32;17.05;;;9.38;;
61017;SDS011;48171;51.550;5.434;2023-02-28T06:57:58;15.77;;;9.05;;
61017;SDS011;48171;51.550;5.434;2023-02-28T07:00:23;18.52;;;9.10;;
61017;SDS011;48171;51.550;5.434;2023-02-28T07:02:49;19.05;;;9.10;;
61017;SDS011;48171;51.550;5.434;2023-02-28T07:05:15;17.08;;;9.35;;
61017;SDS011;48171;51.550;5.434;2023-02-28T07:07:40;17.65;;;8.48;;
61017;SDS011;48171;51.550;5.434;2023-02-28T07:10:09;19.08;;;10.10;;
61017;SDS011;48171;51.550;5.434;2023-02-28T07:12:39;19.23;;;9.38;;
61017;SDS011;48171;51.550;5.434;2023-02-28T07:15:05;17.80;;;8.77;;
61017;SDS011;48171;51.550;5.434;2023-02-28T07:17:31;20.05;;;9.55;;
61017;SDS011;48171;51.550;5.434;2023-02-28T07:19:56;17.20;;;8.57;;
61017;SDS011;48171;51.550;5.434;2023-02-28T07:22:21;16.58;;;8.73;;
61017;SDS011;48171;51.550;5.434;2023-02-28T07:24:47;16.70;;;8.07;;
61017;SDS011;48171;51.550;5.434;2023-02-28T07:27:12;20.40;;;8.75;;
61017;SDS011;48171;51.550;5.434;2023-02-28T07:29:37;25.73;;;9.38;;
61017;SDS011;48171;51.550;5.434;2023-02-28T07:32:03;21.70;;;9.23;;
61017;SDS011;48171;51.550;5.434;2023-02-28T07:34:28;18.52;;;8.10;;
61017;SDS011;48171;51.550;5.434;2023-02-28T07:36:54;15.95;;;7.93;;
61017;SDS011;48171;51.550;5.434;2023-02-28T07:39:20;11.52;;;7.00;;
61017;SDS011;48171;51.550;5.434;2023-02-28T07:41:46;15.63;;;7.93;;
61017;SDS011;48171;51.550;5.434;2023-02-28T07:44:12;16.25;;;7.40;;
61017;SDS011;48171;51.550;5.434;2023-02-28T07:46:37;14.05;;;7.30;;
61017;SDS011;48171;51.550;5.434;2023-02-28T07:49:03;18.50;;;8.25;;
61017;SDS011;48171;51.550;5.434;2023-02-28T07:51:29;14.93;;;7.88;;
61017;SDS011;48171;51.550;5.434;2023-02-28T07:53:55;15.13;;;7.40;;
61017;SDS011;48171;51.550;5.434;2023-02-28T07:56:21;19.60;;;8.35;;
61017;SDS011;48171;51.550;5.434;2023-02-28T07:58:47;14.15;;;8.05;;
61017;SDS011;48171;51.550;5.434;2023-02-28T08:01:12;12.85;;;7.70;;
61017;SDS011;48171;51.550;5.434;2023-02-28T08:03:38;14.85;;;7.43;;
61017;SDS011;48171;51.550;5.434;2023-02-28T08:06:04;19.23;;;7.90;;
61017;SDS011;48171;51.550;5.434;2023-02-28T08:08:31;17.58;;;7.68;;
61017;SDS011;48171;51.550;5.434;2023-02-28T08:11:00;14.93;;;7.20;;
61017;SDS011;48171;51.550;5.434;2023-02-28T08:13:28;11.88;;;6.55;;
61017;SDS011;48171;51.550;5.434;2023-02-28T08:15:54;11.70;;;6.50;;
61017;SDS011;48171;51.550;5.434;2023-02-28T08:18:20;14.38;;;6.85;;
61017;SDS011;48171;51.550;5.434;2023-02-28T08:20:46;12.57;;;5.93;;
61017;SDS011;48171;51.550;5.434;2023-02-28T08:23:13;14.93;;;6.47;;
61017;SDS011;48171;51.550;5.434;2023-02-28T08:25:38;13.13;;;5.68;;
61017;SDS011;48171;51.550;5.434;2023-02-28T08:28:04;16.60;;;5.35;;
61017;SDS011;48171;51.550;5.434;2023-02-28T08:30:30;10.13;;;4.85;;
61017;SDS011;48171;51.550;5.434;2023-02-28T08:32:55;10.00;;;5.43;;
61017;SDS011;48171;51.550;5.434;2023-02-28T08:35:20;10.05;;;4.78;;
61017;SDS011;48171;51.550;5.434;2023-02-28T08:37:49;9.18;;;5.00;;
61017;SDS011;48171;51.550;5.434;2023-02-28T08:40:15;15.50;;;5.35;;
61017;SDS011;48171;51.550;5.434;2023-02-28T08:42:45;9.95;;;4.90;;
61017;SDS011;48171;51.550;5.434;2023-02-28T08:45:11;11.13;;;5.22;;
61017;SDS011;48171;51.550;5.434;2023-02-28T08:47:37;12.10;;;5.03;;
61017;SDS011;48171;51.550;5.434;2023-02-28T08:50:03;12.48;;;5.10;;
61017;SDS011;48171;51.550;5.434;2023-02-28T08:52:29;7.95;;;4.72;;
61017;SDS011;48171;51.550;5.434;2023-02-28T08:54:54;10.85;;;4.75;;
61017;SDS011;48171;51.550;5.434;2023-02-28T08:57:20;9.98;;;5.15;;
61017;SDS011;48171;51.550;5.434;2023-02-28T08:59:45;9.90;;;4.53;;
61017;SDS011;48171;51.550;5.434;2023-02-28T09:02:14;7.78;;;4.63;;
61017;SDS011;48171;51.550;5.434;2023-02-28T09:04:39;9.13;;;4.80;;
61017;SDS011;48171;51.550;5.434;2023-02-28T09:07:05;8.98;;;4.35;;
61017;SDS011;48171;51.550;5.434;2023-02-28T09:09:30;10.02;;;4.57;;
61017;SDS011;48171;51.550;5.434;2023-02-28T09:11:56;9.73;;;4.63;;
61017;SDS011;48171;51.550;5.434;2023-02-28T09:14:21;6.72;;;4.00;;
61017;SDS011;48171;51.550;5.434;2023-02-28T09:16:47;9.13;;;3.97;;
61017;SDS011;48171;51.550;5.434;2023-02-28T09:19:12;9.98;;;4.20;;
61017;SDS011;48171;51.550;5.434;2023-02-28T09:21:38;7.25;;;4.35;;
61017;SDS011;48171;51.550;5.434;2023-02-28T09:24:03;9.43;;;3.92;;
61017;SDS011;48171;51.550;5.434;2023-02-28T09:26:29;7.30;;;4.00;;
61017;SDS011;48171;51.550;5.434;2023-02-28T09:28:54;8.85;;;4.15;;
61017;SDS011;48171;51.550;5.434;2023-02-28T09:31:22;6.90;;;3.88;;
61017;SDS011;48171;51.550;5.434;2023-02-28T09:33:50;6.65;;;3.80;;
61017;SDS011;48171;51.550;5.434;2023-02-28T09:36:18;6.88;;;3.63;;
61017;SDS011;48171;51.550;5.434;2023-02-28T09:38:43;7.88;;;4.50;;
61017;SDS011;48171;51.550;5.434;2023-02-28T09:41:14;7.45;;;3.80;;
61017;SDS011;48171;51.550;5.434;2023-02-28T09:43:43;8.02;;;4.15;;
61017;SDS011;48171;51.550;5.434;2023-02-28T09:49:00;7.03;;;3.95;;
61017;SDS011;48171;51.550;5.434;2023-02-28T09:51:30;8.10;;;4.28;;
61017;SDS011;48171;51.550;5.434;2023-02-28T09:54:15;7.40;;;3.80;;
61017;SDS011;48171;51.550;5.434;2023-02-28T09:56:44;6.10;;;3.63;;
61017;SDS011;48171;51.550;5.434;2023-02-28T10:04:59;5.82;;;3.42;;
61017;SDS011;48171;51.550;5.434;2023-02-28T10:10:27;6.60;;;3.70;;
61017;SDS011;48171;51.550;5.434;2023-02-28T10:12:57;8.30;;;3.47;;
61017;SDS011;48171;51.550;5.434;2023-02-28T10:15:26;7.40;;;3.47;;
61017;SDS011;48171;51.550;5.434;2023-02-28T10:18:00;5.70;;;3.47;;
61017;SDS011;48171;51.550;5.434;2023-02-28T10:20:30;6.90;;;3.50;;
61017;SDS011;48171;51.550;5.434;2023-02-28T10:23:05;5.30;;;3.13;;
61017;SDS011;48171;51.550;5.434;2023-02-28T10:25:39;5.60;;;3.58;;
61017;SDS011;48171;51.550;5.434;2023-02-28T10:28:14;5.20;;;3.20;;
61017;SDS011;48171;51.550;5.434;2023-02-28T10:30:42;5.20;;;3.03;;
61017;SDS011;48171;51.550;5.434;2023-02-28T10:35:59;6.35;;;3.05;;
61017;SDS011;48171;51.550;5.434;2023-02-28T10:38:31;4.85;;;2.83;;
61017;SDS011;48171;51.550;5.434;2023-02-28T10:43:40;4.65;;;2.65;;
61017;SDS011;48171;51.550;5.434;2023-02-28T10:48:38;5.47;;;2.92;;
61017;SDS011;48171;51.550;5.434;2023-02-28T10:51:08;6.82;;;3.10;;
61017;SDS011;48171;51.550;5.434;2023-02-28T10:53:45;6.05;;;3.00;;
61017;SDS011;48171;51.550;5.434;2023-02-28T10:56:15;4.75;;;3.00;;
61017;SDS011;48171;51.550;5.434;2023-02-28T10:58:48;8.77;;;3.20;;
61017;SDS011;48171;51.550;5.434;2023-02-28T11:01:17;5.85;;;3.20;;
61017;SDS011;48171;51.550;5.434;2023-02-28T11:03:42;4.47;;;2.90;;
61017;SDS011;48171;51.550;5.434;2023-02-28T11:06:29;6.43;;;3.42;;
61017;SDS011;48171;51.550;5.434;2023-02-28T11:08:56;5.53;;;2.67;;
61017;SDS011;48171;51.550;5.434;2023-02-28T11:11:24;5.97;;;3.20;;
61017;SDS011;48171;51.550;5.434;2023-02-28T11:13:53;4.20;;;2.83;;
61017;SDS011;48171;51.550;5.434;2023-02-28T11:16:20;5.20;;;2.75;;
61017;SDS011;48171;51.550;5.434;2023-02-28T11:21:26;7.47;;;3.10;;
61017;SDS011;48171;51.550;5.434;2023-02-28T11:24:02;4.28;;;2.80;;
61017;SDS011;48171;51.550;5.434;2023-02-28T11:26:37;6.22;;;3.20;;
61017;SDS011;48171;51.550;5.434;2023-02-28T11:29:24;7.45;;;3.25;;
61017;SDS011;48171;51.550;5.434;2023-02-28T11:34:42;5.35;;;2.80;;
61017;SDS011;48171;51.550;5.434;2023-02-28T11:37:11;5.00;;;3.10;;
61017;SDS011;48171;51.550;5.434;2023-02-28T11:39:38;5.47;;;3.35;;
61017;SDS011;48171;51.550;5.434;2023-02-28T11:42:20;10.43;;;3.40;;
61017;SDS011;48171;51.550;5.434;2023-02-28T11:45:08;6.20;;;3.65;;
61017;SDS011;48171;51.550;5.434;2023-02-28T11:47:55;5.68;;;3.78;;
61017;SDS011;48171;51.550;5.434;2023-02-28T11:50:52;7.07;;;3.47;;
61017;SDS011;48171;51.550;5.434;2023-02-28T11:53:22;6.93;;;4.07;;
61017;SDS011;48171;51.550;5.434;2023-02-28T11:56:05;5.90;;;3.35;;
61017;SDS011;48171;51.550;5.434;2023-02-28T12:06:55;9.23;;;3.45;;
61017;SDS011;48171;51.550;5.434;2023-02-28T12:13:00;5.80;;;3.42;;
61017;SDS011;48171;51.550;5.434;2023-02-28T12:15:30;5.95;;;3.97;;
61017;SDS011;48171;51.550;5.434;2023-02-28T12:20:36;6.13;;;3.25;;
61017;SDS011;48171;51.550;5.434;2023-02-28T12:26:07;7.43;;;3.70;;
61017;SDS011;48171;51.550;5.434;2023-02-28T12:28:53;5.45;;;3.83;;
61017;SDS011;48171;51.550;5.434;2023-02-28T12:31:28;5.10;;;3.40;;
61017;SDS011;48171;51.550;5.434;2023-02-28T12:34:03;5.40;;;3.38;;
61017;SDS011;48171;51.550;5.434;2023-02-28T12:36:34;7.53;;;4.15;;
61017;SDS011;48171;51.550;5.434;2023-02-28T12:39:18;5.95;;;3.70;;
61017;SDS011;48171;51.550;5.434;2023-02-28T12:42:03;6.50;;;3.80;;
61017;SDS011;48171;51.550;5.434;2023-02-28T12:44:35;10.07;;;4.15;;
61017;SDS011;48171;51.550;5.434;2023-02-28T12:47:09;5.75;;;3.70;;
61017;SDS011;48171;51.550;5.434;2023-02-28T12:49:49;6.78;;;4.30;;
61017;SDS011;48171;51.550;5.434;2023-02-28T12:52:21;7.60;;;4.00;;
61017;SDS011;48171;51.550;5.434;2023-02-28T12:54:57;7.60;;;4.05;;
61017;SDS011;48171;51.550;5.434;2023-02-28T13:00:33;8.50;;;4.32;;
61017;SDS011;48171;51.550;5.434;2023-02-28T13:03:21;11.43;;;4.32;;
61017;SDS011;48171;51.550;5.434;2023-02-28T13:06:05;7.13;;;4.43;;
61017;SDS011;48171;51.550;5.434;2023-02-28T13:08:53;6.43;;;3.88;;
61017;SDS011;48171;51.550;5.434;2023-02-28T13:11:34;7.35;;;4.00;;
61017;SDS011;48171;51.550;5.434;2023-02-28T13:14:06;7.72;;;3.83;;
61017;SDS011;48171;51.550;5.434;2023-02-28T13:16:53;8.25;;;4.53;;
61017;SDS011;48171;51.550;5.434;2023-02-28T13:19:35;10.13;;;4.38;;
61017;SDS011;48171;51.550;5.434;2023-02-28T13:22:03;7.28;;;3.88;;
61017;SDS011;48171;51.550;5.434;2023-02-28T13:34:27;8.40;;;4.05;;
61017;SDS011;48171;51.550;5.434;2023-02-28T13:37:03;7.22;;;4.22;;
61017;SDS011;48171;51.550;5.434;2023-02-28T13:39:58;8.82;;;3.88;;
61017;SDS011;48171;51.550;5.434;2023-02-28T13:42:51;9.50;;;4.55;;
61017;SDS011;48171;51.550;5.434;2023-02-28T13:45:21;7.90;;;4.53;;
61017;SDS011;48171;51.550;5.434;2023-02-28T13:50:51;11.07;;;4.85;;
61017;SDS011;48171;51.550;5.434;2023-02-28T13:53:34;8.93;;;4.43;;
61017;SDS011;48171;51.550;5.434;2023-02-28T13:56:22;8.80;;;5.00;;
61017;SDS011;48171;51.550;5.434;2023-02-28T13:59:04;8.52;;;4.60;;
61017;SDS011;48171;51.550;5.434;2023-02-28T14:06:54;8.00;;;4.60;;
61017;SDS011;48171;51.550;5.434;2023-02-28T14:09:40;10.07;;;5.15;;
61017;SDS011;48171;51.550;5.434;2023-02-28T14:18:01;7.25;;;4.53;;
61017;SDS011;48171;51.550;5.434;2023-02-28T14:20:29;10.48;;;4.90;;
61017;SDS011;48171;51.550;5.434;2023-02-28T14:23:04;9.05;;;4.70;;
61017;SDS011;48171;51.550;5.434;2023-02-28T14:25:42;9.05;;;4.90;;
61017;SDS011;48171;51.550;5.434;2023-02-28T14:31:15;13.15;;;5.20;;
61017;SDS011;48171;51.550;5.434;2023-02-28T14:36:44;8.80;;;4.97;;
61017;SDS011;48171;51.550;5.434;2023-02-28T14:39:14;9.60;;;5.40;;
61017;SDS011;48171;51.550;5.434;2023-02-28T14:41:42;9.48;;;5.20;;
61017;SDS011;48171;51.550;5.434;2023-02-28T14:46:46;8.95;;;5.25;;
61017;SDS011;48171;51.550;5.434;2023-02-28T14:52:06;9.43;;;5.60;;
61017;SDS011;48171;51.550;5.434;2023-02-28T14:54:38;10.27;;;5.53;;
61017;SDS011;48171;51.550;5.434;2023-02-28T14:57:05;10.07;;;5.78;;
61017;SDS011;48171;51.550;5.434;2023-02-28T14:59:32;11.25;;;5.68;;
61017;SDS011;48171;51.550;5.434;2023-02-28T15:04:54;10.40;;;5.25;;
61017;SDS011;48171;51.550;5.434;2023-02-28T15:07:22;10.07;;;5.88;;
61017;SDS011;48171;51.550;5.434;2023-02-28T15:10:11;9.90;;;5.57;;
61017;SDS011;48171;51.550;5.434;2023-02-28T15:12:46;11.10;;;5.50;;
61017;SDS011;48171;51.550;5.434;2023-02-28T15:15:16;11.43;;;5.70;;
61017;SDS011;48171;51.550;5.434;2023-02-28T15:17:44;11.43;;;5.97;;
61017;SDS011;48171;51.550;5.434;2023-02-28T15:20:12;10.13;;;5.45;;
61017;SDS011;48171;51.550;5.434;2023-02-28T15:22:40;12.13;;;6.25;;
61017;SDS011;48171;51.550;5.434;2023-02-28T15:25:06;10.70;;;6.60;;
61017;SDS011;48171;51.550;5.434;2023-02-28T15:27:33;15.52;;;6.82;;
61017;SDS011;48171;51.550;5.434;2023-02-28T15:30:08;12.30;;;6.13;;
61017;SDS011;48171;51.550;5.434;2023-02-28T15:32:40;9.95;;;5.97;;
61017;SDS011;48171;51.550;5.434;2023-02-28T15:37:56;11.20;;;6.15;;
61017;SDS011;48171;51.550;5.434;2023-02-28T15:40:27;11.02;;;6.15;;
61017;SDS011;48171;51.550;5.434;2023-02-28T15:45:41;15.43;;;6.90;;
61017;SDS011;48171;51.550;5.434;2023-02-28T15:48:21;13.50;;;7.03;;
61017;SDS011;48171;51.550;5.434;2023-02-28T15:50:49;13.98;;;7.18;;
61017;SDS011;48171;51.550;5.434;2023-02-28T15:53:37;10.30;;;6.45;;
61017;SDS011;48171;51.550;5.434;2023-02-28T15:56:07;13.23;;;7.07;;
61017;SDS011;48171;51.550;5.434;2023-02-28T15:58:52;18.05;;;7.25;;
61017;SDS011;48171;51.550;5.434;2023-02-28T16:01:30;18.52;;;7.22;;
61017;SDS011;48171;51.550;5.434;2023-02-28T16:04:01;12.52;;;7.43;;
61017;SDS011;48171;51.550;5.434;2023-02-28T16:06:32;14.77;;;6.63;;
61017;SDS011;48171;51.550;5.434;2023-02-28T16:09:03;14.55;;;6.93;;
61017;SDS011;48171;51.550;5.434;2023-02-28T16:11:30;13.70;;;7.32;;
61017;SDS011;48171;51.550;5.434;2023-02-28T16:13:57;14.02;;;7.03;;
61017;SDS011;48171;51.550;5.434;2023-02-28T16:16:23;13.25;;;6.97;;
61017;SDS011;48171;51.550;5.434;2023-02-28T16:18:51;16.08;;;7.43;;
61017;SDS011;48171;51.550;5.434;2023-02-28T16:21:16;13.35;;;7.22;;
61017;SDS011;48171;51.550;5.434;2023-02-28T16:23:41;12.80;;;6.80;;
61017;SDS011;48171;51.550;5.434;2023-02-28T16:26:07;14.00;;;7.00;;
61017;SDS011;48171;51.550;5.434;2023-02-28T16:28:34;14.32;;;7.15;;
61017;SDS011;48171;51.550;5.434;2023-02-28T16:31:02;15.45;;;7.32;;
61017;SDS011;48171;51.550;5.434;2023-02-28T16:33:29;15.55;;;6.90;;
61017;SDS011;48171;51.550;5.434;2023-02-28T16:35:55;13.68;;;6.85;;
61017;SDS011;48171;51.550;5.434;2023-02-28T16:38:20;14.20;;;7.43;;
61017;SDS011;48171;51.550;5.434;2023-02-28T16:40:48;11.73;;;7.28;;
61017;SDS011;48171;51.550;5.434;2023-02-28T16:43:18;15.35;;;6.82;;
61017;SDS011;48171;51.550;5.434;2023-02-28T16:45:47;14.48;;;7.07;;
61017;SDS011;48171;51.550;5.434;2023-02-28T16:48:15;14.60;;;6.85;;
61017;SDS011;48171;51.550;5.434;2023-02-28T16:50:41;15.10;;;7.07;;
61017;SDS011;48171;51.550;5.434;2023-02-28T16:53:09;16.73;;;7.03;;
61017;SDS011;48171;51.550;5.434;2023-02-28T16:55:34;12.85;;;7.25;;